Impacts TAF Board
For situational awareness. Not to be used for flight planning purposes.
IDs:

KEFD - Houston/Ellington Ar, TX, US

Issued at 0400 UTC 19 Aug 2019
Updated at 0554 UTC 19 Aug 2019
Potential Impact None Slight Moderate High
Time0350Z 19/06Z 19/07Z 19/08Z 19/09Z 19/10Z 19/11Z 19/12Z 19/13Z 19/14Z 19/15Z 19/16Z 19/17Z 19/18Z>>
Type OBS PRVL PRVL PRVL PRVL PRVL PRVL PRVL PRVL PRVL PRVL PRVL PRVL PRVL
  [TEMP]  
VIS 10 >6 >6 >6 >6 >6 >6 >6 >6 >6 >6 >6 >6 >6
  [4.97]  
CIG -- -- -- -- -- -- -- -- -- -- -- -- -- --
  [20]  
Cover FEW FEW FEW FEW FEW FEW FEW FEW FEW FEW FEW FEW FEW FEW
  [BKN]  
FltCat VFR VFR VFR VFR VFR VFR VFR VFR VFR VFR VFR VFR VFR VFR
  [MVFR]  
WX -- -- -- -- -- -- -- -- -- -- -- -- -- --
  [-TSRA]  
WDir 150 160 160 160 160 160 160 160 160 160 160 160 160 160
[180]
WSpd 4 9 9 9 9 9 9 9 9 9 9 9 9 9
  [10]  
WGst -- -- -- -- -- -- -- -- -- -- -- -- -- --
  [15]  
Raw TAF
TAF KEFD 190400Z 1904/2010 16009KT 9999 FEW020 QNH2991INS
  TEMPO 1918/1924 18010G15KT 8000 -TSRA BKN020CB
  BECMG 2000/2001 16012KT 9999 SCT040 QNH2995INS
  BECMG 2008/2009 19006KT 9999 FEW010 SCT040 QNH2996INS TX34/1921Z TN26/1909Z


Raw METAR
KEFD 190350Z 15004KT 10SM FEW250 28/23 A2993
KEFD 190250Z 16007KT 10SM FEW250 29/23 A2991

METAR Board
For situational awareness. Not to be used for flight planning purposes.